Погода Мариентальна 2 недели

Хардап, Намибия

04 - 17 марта
  • 04марта
    Сегодня
    +19°
    +40°
    Небольшая облачность
    ВремяПогодаТемператураВлажностьДавлениеВетер, м/сВероятность осадков
    02:00Ясно и безоблачно+29°C14 %669 мм2.7 м/с5 %
    05:00Ясно и безоблачно+25°C21 %668 мм2.3 м/с5 %
    08:00Ясно и безоблачно+28°C19 %669 мм3.3 м/с5 %
    11:00Небольшая облачность+35°C11 %670 мм4.6 м/с5 %
    14:00Небольшая облачность+40°C13 %669 мм9.9 м/с5 %
    17:00Облачно с прояснениями+38°C12 %668 мм10.5 м/с5 %
    20:00Практически безоблачно+34°C14 %668 мм7.5 м/с5 %
    23:00Небольшая облачность+29°C24 %669 мм6.1 м/с5 %
  • 05марта
    Вторник
    +22°
    +34°
    Практически безоблачно
    ВремяПогодаТемператураВлажностьДавлениеВетер, м/сВероятность осадков
    02:00Небольшая облачность+23°C40 %669 мм5.0 м/с5 %
    05:00Ясно и безоблачно+20°C48 %669 мм3.5 м/с5 %
    08:00Ясно и безоблачно+21°C58 %671 мм2.9 м/с5 %
    11:00Ясно и безоблачно+26°C35 %671 мм2.2 м/с5 %
    14:00Практически безоблачно+31°C22 %670 мм0.7 м/с5 %
    17:00Небольшая облачность+33°C19 %669 мм1.3 м/с5 %
    20:00Практически безоблачно+32°C20 %669 мм3.0 м/с5 %
    23:00Ясно и безоблачно+29°C24 %669 мм2.6 м/с5 %
  • 06марта
    Среда
    +23°
    +39°
    Ясно и безоблачно
    ВремяПогодаТемператураВлажностьДавлениеВетер, м/сВероятность осадков
    02:00Ясно и безоблачно+25°C27 %669 мм2.6 м/с5 %
    05:00Ясно и безоблачно+23°C27 %669 мм3.6 м/с5 %
    08:00Ясно и безоблачно+25°C26 %671 мм2.6 м/с5 %
    11:00Ясно и безоблачно+32°C16 %672 мм4.1 м/с5 %
    14:00Ясно и безоблачно+37°C12 %670 мм4.1 м/с5 %
    17:00Ясно и безоблачно+38°C11 %668 мм2.1 м/с5 %
    20:00Ясно и безоблачно+36°C12 %669 мм4.0 м/с5 %
    23:00Ясно и безоблачно+31°C14 %671 мм5.5 м/с5 %
  • 07марта
    Четверг
    +23°
    +39°
    Ясно и безоблачно
    ВремяПогодаТемператураВлажностьДавлениеВетер, м/сВероятность осадков
    02:00Ясно и безоблачно+27°C23 %670 мм5.7 м/с5 %
    05:00Ясно и безоблачно+24°C34 %670 мм3.5 м/с5 %
    08:00Ясно и безоблачно+25°C33 %672 мм2.8 м/с5 %
    11:00Ясно и безоблачно+33°C14 %673 мм3.3 м/с5 %
    14:00Ясно и безоблачно+37°C11 %671 мм1.6 м/с5 %
    17:00Ясно и безоблачно+38°C10 %670 мм2.3 м/с5 %
    20:00Ясно и безоблачно+36°C12 %670 мм2.8 м/с5 %
    23:00Ясно и безоблачно+32°C15 %670 мм4.6 м/с5 %
  • 08марта
    Пятница
    +25°
    +41°
    Ясно и безоблачно
    ВремяПогодаТемператураВлажностьДавлениеВетер, м/сВероятность осадков
    02:00Ясно и безоблачно+27°C25 %671 мм7.0 м/с5 %
    05:00Ясно и безоблачно+24°C34 %671 мм4.0 м/с5 %
    08:00Ясно и безоблачно+25°C34 %672 мм3.1 м/с5 %
    11:00Ясно и безоблачно+34°C17 %673 мм4.4 м/с5 %
    14:00Ясно и безоблачно+39°C14 %672 мм2.5 м/с5 %
    17:00Ясно и безоблачно+40°C11 %670 мм1.5 м/с5 %
    20:00Ясно и безоблачно+38°C12 %670 мм5.2 м/с5 %
    23:00Ясно и безоблачно+34°C17 %670 мм4.8 м/с5 %
Мы используем cookies
Соглашаюсь